sensor_id;sensor_type;location;lat;lon;timestamp;P1;durP1;ratioP1;P2;durP2;ratioP2
43986;SDS011;29650;47.378;8.300;2024-03-06T00:02:26;0.88;;;0.70;;
43986;SDS011;29650;47.378;8.300;2024-03-06T00:04:53;0.80;;;0.70;;
43986;SDS011;29650;47.378;8.300;2024-03-06T00:07:20;0.60;;;0.60;;
43986;SDS011;29650;47.378;8.300;2024-03-06T00:09:47;1.50;;;0.68;;
43986;SDS011;29650;47.378;8.300;2024-03-06T00:12:14;0.50;;;0.50;;
43986;SDS011;29650;47.378;8.300;2024-03-06T00:14:41;0.88;;;0.70;;
43986;SDS011;29650;47.378;8.300;2024-03-06T00:17:07;0.45;;;0.45;;
43986;SDS011;29650;47.378;8.300;2024-03-06T00:19:36;0.93;;;0.70;;
43986;SDS011;29650;47.378;8.300;2024-03-06T00:22:03;0.82;;;0.70;;
43986;SDS011;29650;47.378;8.300;2024-03-06T00:24:31;0.60;;;0.50;;
43986;SDS011;29650;47.378;8.300;2024-03-06T00:26:58;0.70;;;0.60;;
43986;SDS011;29650;47.378;8.300;2024-03-06T00:29:26;0.52;;;0.52;;
43986;SDS011;29650;47.378;8.300;2024-03-06T00:31:53;1.58;;;0.68;;
43986;SDS011;29650;47.378;8.300;2024-03-06T00:34:20;1.20;;;0.80;;
43986;SDS011;29650;47.378;8.300;2024-03-06T00:36:48;0.73;;;0.65;;
43986;SDS011;29650;47.378;8.300;2024-03-06T00:39:15;0.73;;;0.60;;
43986;SDS011;29650;47.378;8.300;2024-03-06T00:41:42;0.70;;;0.70;;
43986;SDS011;29650;47.378;8.300;2024-03-06T00:44:09;0.60;;;0.60;;
43986;SDS011;29650;47.378;8.300;2024-03-06T00:46:36;0.60;;;0.60;;
43986;SDS011;29650;47.378;8.300;2024-03-06T00:49:04;2.13;;;0.55;;
43986;SDS011;29650;47.378;8.300;2024-03-06T00:51:31;1.30;;;0.60;;
43986;SDS011;29650;47.378;8.300;2024-03-06T00:54:02;0.85;;;0.75;;
43986;SDS011;29650;47.378;8.300;2024-03-06T00:56:30;1.10;;;0.60;;
43986;SDS011;29650;47.378;8.300;2024-03-06T00:58:57;0.43;;;0.43;;
43986;SDS011;29650;47.378;8.300;2024-03-06T01:01:24;1.05;;;0.68;;
43986;SDS011;29650;47.378;8.300;2024-03-06T01:03:52;0.75;;;0.60;;
43986;SDS011;29650;47.378;8.300;2024-03-06T01:06:20;0.40;;;0.40;;
43986;SDS011;29650;47.378;8.300;2024-03-06T01:08:47;0.82;;;0.60;;
43986;SDS011;29650;47.378;8.300;2024-03-06T01:11:15;0.50;;;0.50;;
43986;SDS011;29650;47.378;8.300;2024-03-06T01:13:42;1.98;;;0.73;;
43986;SDS011;29650;47.378;8.300;2024-03-06T01:16:09;0.70;;;0.70;;
43986;SDS011;29650;47.378;8.300;2024-03-06T01:18:36;0.75;;;0.70;;
43986;SDS011;29650;47.378;8.300;2024-03-06T01:21:04;0.68;;;0.68;;
43986;SDS011;29650;47.378;8.300;2024-03-06T01:23:31;1.10;;;0.90;;
43986;SDS011;29650;47.378;8.300;2024-03-06T01:25:58;1.00;;;0.90;;
43986;SDS011;29650;47.378;8.300;2024-03-06T01:28:28;0.93;;;0.82;;
43986;SDS011;29650;47.378;8.300;2024-03-06T01:30:55;0.70;;;0.70;;
43986;SDS011;29650;47.378;8.300;2024-03-06T01:33:23;2.83;;;0.90;;
43986;SDS011;29650;47.378;8.300;2024-03-06T01:35:52;0.75;;;0.75;;
43986;SDS011;29650;47.378;8.300;2024-03-06T01:38:38;2.45;;;0.60;;
43986;SDS011;29650;47.378;8.300;2024-03-06T01:41:07;1.30;;;1.00;;
43986;SDS011;29650;47.378;8.300;2024-03-06T01:43:40;3.05;;;1.35;;
43986;SDS011;29650;47.378;8.300;2024-03-06T01:46:07;2.78;;;1.38;;
43986;SDS011;29650;47.378;8.300;2024-03-06T01:48:34;1.50;;;1.40;;
43986;SDS011;29650;47.378;8.300;2024-03-06T01:51:02;2.65;;;1.20;;
43986;SDS011;29650;47.378;8.300;2024-03-06T01:53:47;1.48;;;1.27;;
43986;SDS011;29650;47.378;8.300;2024-03-06T01:56:36;1.60;;;1.50;;
43986;SDS011;29650;47.378;8.300;2024-03-06T01:59:36;1.35;;;1.25;;
43986;SDS011;29650;47.378;8.300;2024-03-06T02:02:04;1.60;;;1.50;;
43986;SDS011;29650;47.378;8.300;2024-03-06T02:04:33;1.60;;;1.50;;
43986;SDS011;29650;47.378;8.300;2024-03-06T02:07:00;2.40;;;1.67;;
43986;SDS011;29650;47.378;8.300;2024-03-06T02:09:28;1.88;;;1.70;;
43986;SDS011;29650;47.378;8.300;2024-03-06T02:11:55;2.30;;;2.10;;
43986;SDS011;29650;47.378;8.300;2024-03-06T02:14:23;2.25;;;1.52;;
43986;SDS011;29650;47.378;8.300;2024-03-06T02:16:51;2.15;;;1.77;;
43986;SDS011;29650;47.378;8.300;2024-03-06T02:19:20;2.42;;;2.00;;
43986;SDS011;29650;47.378;8.300;2024-03-06T02:21:50;1.80;;;1.52;;
43986;SDS011;29650;47.378;8.300;2024-03-06T02:24:17;2.13;;;1.92;;
43986;SDS011;29650;47.378;8.300;2024-03-06T02:26:44;1.70;;;1.60;;
43986;SDS011;29650;47.378;8.300;2024-03-06T02:29:11;2.53;;;1.60;;
43986;SDS011;29650;47.378;8.300;2024-03-06T02:31:39;1.50;;;1.40;;
43986;SDS011;29650;47.378;8.300;2024-03-06T02:34:07;2.20;;;1.92;;
43986;SDS011;29650;47.378;8.300;2024-03-06T02:36:39;2.33;;;2.08;;
43986;SDS011;29650;47.378;8.300;2024-03-06T02:39:07;4.90;;;2.30;;
43986;SDS011;29650;47.378;8.300;2024-03-06T02:41:34;2.23;;;2.03;;
43986;SDS011;29650;47.378;8.300;2024-03-06T02:44:09;2.55;;;2.30;;
43986;SDS011;29650;47.378;8.300;2024-03-06T02:46:37;2.33;;;2.13;;
43986;SDS011;29650;47.378;8.300;2024-03-06T02:49:04;3.55;;;2.95;;
43986;SDS011;29650;47.378;8.300;2024-03-06T02:51:31;2.80;;;2.47;;
43986;SDS011;29650;47.378;8.300;2024-03-06T02:53:58;4.95;;;3.20;;
43986;SDS011;29650;47.378;8.300;2024-03-06T02:56:27;5.15;;;3.20;;
43986;SDS011;29650;47.378;8.300;2024-03-06T02:58:56;2.85;;;2.55;;
43986;SDS011;29650;47.378;8.300;2024-03-06T03:01:28;3.33;;;2.80;;
43986;SDS011;29650;47.378;8.300;2024-03-06T03:03:56;3.90;;;3.30;;
43986;SDS011;29650;47.378;8.300;2024-03-06T03:06:35;5.00;;;3.20;;
43986;SDS011;29650;47.378;8.300;2024-03-06T03:09:02;3.42;;;2.90;;
43986;SDS011;29650;47.378;8.300;2024-03-06T03:16:27;3.78;;;3.00;;
43986;SDS011;29650;47.378;8.300;2024-03-06T03:18:55;4.20;;;3.17;;
43986;SDS011;29650;47.378;8.300;2024-03-06T03:24:10;4.03;;;3.15;;
43986;SDS011;29650;47.378;8.300;2024-03-06T03:26:38;4.55;;;3.30;;
43986;SDS011;29650;47.378;8.300;2024-03-06T03:29:07;3.85;;;3.00;;
43986;SDS011;29650;47.378;8.300;2024-03-06T03:31:34;4.97;;;3.70;;
43986;SDS011;29650;47.378;8.300;2024-03-06T03:34:01;4.43;;;3.40;;
43986;SDS011;29650;47.378;8.300;2024-03-06T03:36:28;4.18;;;3.45;;
43986;SDS011;29650;47.378;8.300;2024-03-06T03:38:55;4.95;;;3.45;;
43986;SDS011;29650;47.378;8.300;2024-03-06T03:41:22;5.63;;;3.53;;
43986;SDS011;29650;47.378;8.300;2024-03-06T03:43:52;3.85;;;3.08;;
43986;SDS011;29650;47.378;8.300;2024-03-06T03:46:19;4.00;;;3.35;;
43986;SDS011;29650;47.378;8.300;2024-03-06T03:48:55;3.85;;;3.00;;
43986;SDS011;29650;47.378;8.300;2024-03-06T03:51:22;3.70;;;2.95;;
43986;SDS011;29650;47.378;8.300;2024-03-06T03:53:50;5.93;;;3.40;;
43986;SDS011;29650;47.378;8.300;2024-03-06T03:56:18;5.45;;;3.72;;
43986;SDS011;29650;47.378;8.300;2024-03-06T03:58:45;4.47;;;3.42;;
43986;SDS011;29650;47.378;8.300;2024-03-06T04:01:18;5.68;;;3.20;;
43986;SDS011;29650;47.378;8.300;2024-03-06T04:03:45;4.28;;;3.22;;
43986;SDS011;29650;47.378;8.300;2024-03-06T04:06:13;4.72;;;3.40;;
43986;SDS011;29650;47.378;8.300;2024-03-06T04:08:40;3.28;;;2.83;;
43986;SDS011;29650;47.378;8.300;2024-03-06T04:11:07;4.93;;;3.70;;
43986;SDS011;29650;47.378;8.300;2024-03-06T04:13:36;4.35;;;3.45;;
43986;SDS011;29650;47.378;8.300;2024-03-06T04:16:03;4.70;;;3.38;;
43986;SDS011;29650;47.378;8.300;2024-03-06T04:18:32;4.28;;;3.28;;
43986;SDS011;29650;47.378;8.300;2024-03-06T04:23:29;4.85;;;3.00;;
43986;SDS011;29650;47.378;8.300;2024-03-06T04:25:56;4.05;;;2.75;;
43986;SDS011;29650;47.378;8.300;2024-03-06T04:28:29;4.32;;;3.35;;
43986;SDS011;29650;47.378;8.300;2024-03-06T04:30:57;4.75;;;3.47;;
43986;SDS011;29650;47.378;8.300;2024-03-06T04:33:24;4.80;;;3.20;;
43986;SDS011;29650;47.378;8.300;2024-03-06T04:35:52;6.20;;;3.90;;
43986;SDS011;29650;47.378;8.300;2024-03-06T04:38:19;5.30;;;3.58;;
43986;SDS011;29650;47.378;8.300;2024-03-06T04:40:46;5.65;;;3.78;;
43986;SDS011;29650;47.378;8.300;2024-03-06T04:43:27;4.65;;;3.22;;
43986;SDS011;29650;47.378;8.300;2024-03-06T04:45:55;5.95;;;3.85;;
43986;SDS011;29650;47.378;8.300;2024-03-06T04:48:22;4.32;;;3.10;;
43986;SDS011;29650;47.378;8.300;2024-03-06T04:50:49;5.13;;;3.75;;
43986;SDS011;29650;47.378;8.300;2024-03-06T04:53:17;5.22;;;3.53;;
43986;SDS011;29650;47.378;8.300;2024-03-06T04:58:17;5.00;;;3.60;;
43986;SDS011;29650;47.378;8.300;2024-03-06T05:00:45;5.78;;;3.55;;
43986;SDS011;29650;47.378;8.300;2024-03-06T05:03:12;4.72;;;3.17;;
43986;SDS011;29650;47.378;8.300;2024-03-06T05:05:48;5.15;;;3.50;;
43986;SDS011;29650;47.378;8.300;2024-03-06T05:08:19;4.05;;;2.88;;
43986;SDS011;29650;47.378;8.300;2024-03-06T05:10:48;3.53;;;2.83;;
43986;SDS011;29650;47.378;8.300;2024-03-06T05:13:15;4.10;;;2.80;;
43986;SDS011;29650;47.378;8.300;2024-03-06T05:15:42;4.45;;;3.15;;
43986;SDS011;29650;47.378;8.300;2024-03-06T05:18:09;4.53;;;3.10;;
43986;SDS011;29650;47.378;8.300;2024-03-06T05:20:37;3.90;;;2.90;;
43986;SDS011;29650;47.378;8.300;2024-03-06T05:23:04;3.42;;;2.70;;
43986;SDS011;29650;47.378;8.300;2024-03-06T05:25:32;5.03;;;3.40;;
43986;SDS011;29650;47.378;8.300;2024-03-06T05:27:59;4.55;;;3.42;;
43986;SDS011;29650;47.378;8.300;2024-03-06T05:30:26;3.92;;;3.25;;
43986;SDS011;29650;47.378;8.300;2024-03-06T05:32:54;6.25;;;3.42;;
43986;SDS011;29650;47.378;8.300;2024-03-06T05:35:21;5.05;;;3.20;;
43986;SDS011;29650;47.378;8.300;2024-03-06T05:37:48;5.32;;;3.22;;
43986;SDS011;29650;47.378;8.300;2024-03-06T05:40:17;3.95;;;2.90;;
43986;SDS011;29650;47.378;8.300;2024-03-06T05:42:45;5.47;;;3.13;;
43986;SDS011;29650;47.378;8.300;2024-03-06T05:45:12;3.22;;;2.60;;
43986;SDS011;29650;47.378;8.300;2024-03-06T05:47:39;4.82;;;3.30;;
43986;SDS011;29650;47.378;8.300;2024-03-06T05:50:15;4.13;;;3.13;;
43986;SDS011;29650;47.378;8.300;2024-03-06T05:52:43;4.18;;;3.25;;
43986;SDS011;29650;47.378;8.300;2024-03-06T05:55:10;4.65;;;3.17;;
43986;SDS011;29650;47.378;8.300;2024-03-06T05:57:38;4.65;;;3.25;;
43986;SDS011;29650;47.378;8.300;2024-03-06T06:00:12;4.93;;;3.33;;
43986;SDS011;29650;47.378;8.300;2024-03-06T06:02:43;3.80;;;2.70;;
43986;SDS011;29650;47.378;8.300;2024-03-06T06:05:11;4.40;;;3.00;;
43986;SDS011;29650;47.378;8.300;2024-03-06T06:07:45;4.95;;;3.47;;
43986;SDS011;29650;47.378;8.300;2024-03-06T06:10:15;3.67;;;2.85;;
43986;SDS011;29650;47.378;8.300;2024-03-06T06:12:42;5.63;;;3.70;;
43986;SDS011;29650;47.378;8.300;2024-03-06T06:15:12;5.95;;;3.90;;
43986;SDS011;29650;47.378;8.300;2024-03-06T06:17:40;4.80;;;3.45;;
43986;SDS011;29650;47.378;8.300;2024-03-06T06:20:09;5.63;;;3.23;;
43986;SDS011;29650;47.378;8.300;2024-03-06T06:22:39;5.20;;;3.58;;
43986;SDS011;29650;47.378;8.300;2024-03-06T06:25:06;5.53;;;3.80;;
43986;SDS011;29650;47.378;8.300;2024-03-06T06:27:34;3.85;;;2.67;;
43986;SDS011;29650;47.378;8.300;2024-03-06T06:30:02;5.00;;;3.25;;
43986;SDS011;29650;47.378;8.300;2024-03-06T06:32:31;5.30;;;3.42;;
43986;SDS011;29650;47.378;8.300;2024-03-06T06:34:58;4.43;;;3.00;;
43986;SDS011;29650;47.378;8.300;2024-03-06T06:37:28;6.13;;;3.63;;
43986;SDS011;29650;47.378;8.300;2024-03-06T06:40:00;4.50;;;3.22;;
43986;SDS011;29650;47.378;8.300;2024-03-06T06:42:31;5.78;;;2.53;;
43986;SDS011;29650;47.378;8.300;2024-03-06T06:44:59;3.10;;;2.50;;
43986;SDS011;29650;47.378;8.300;2024-03-06T06:47:27;3.42;;;2.50;;
43986;SDS011;29650;47.378;8.300;2024-03-06T06:49:56;4.00;;;2.50;;
43986;SDS011;29650;47.378;8.300;2024-03-06T06:52:43;4.28;;;2.88;;
43986;SDS011;29650;47.378;8.300;2024-03-06T06:55:25;4.95;;;2.22;;
43986;SDS011;29650;47.378;8.300;2024-03-06T06:57:52;4.15;;;2.97;;
43986;SDS011;29650;47.378;8.300;2024-03-06T07:00:19;4.25;;;3.00;;
43986;SDS011;29650;47.378;8.300;2024-03-06T07:02:48;3.63;;;2.65;;
43986;SDS011;29650;47.378;8.300;2024-03-06T07:05:23;3.75;;;2.80;;
43986;SDS011;29650;47.378;8.300;2024-03-06T07:07:51;3.55;;;2.50;;
43986;SDS011;29650;47.378;8.300;2024-03-06T07:10:19;7.28;;;3.13;;
43986;SDS011;29650;47.378;8.300;2024-03-06T07:13:02;3.70;;;2.15;;
43986;SDS011;29650;47.378;8.300;2024-03-06T07:15:30;3.17;;;2.22;;
43986;SDS011;29650;47.378;8.300;2024-03-06T07:17:57;2.67;;;2.20;;
43986;SDS011;29650;47.378;8.300;2024-03-06T07:20:26;3.90;;;2.72;;
43986;SDS011;29650;47.378;8.300;2024-03-06T07:25:20;3.28;;;2.67;;
43986;SDS011;29650;47.378;8.300;2024-03-06T07:27:47;3.67;;;2.67;;
43986;SDS011;29650;47.378;8.300;2024-03-06T07:30:15;3.17;;;2.30;;
43986;SDS011;29650;47.378;8.300;2024-03-06T07:32:56;5.13;;;3.85;;
43986;SDS011;29650;47.378;8.300;2024-03-06T07:35:23;4.93;;;3.03;;
43986;SDS011;29650;47.378;8.300;2024-03-06T07:38:04;3.13;;;2.45;;
43986;SDS011;29650;47.378;8.300;2024-03-06T07:40:36;3.60;;;2.50;;
43986;SDS011;29650;47.378;8.300;2024-03-06T07:43:04;4.38;;;2.97;;
43986;SDS011;29650;47.378;8.300;2024-03-06T07:45:31;3.95;;;2.65;;
43986;SDS011;29650;47.378;8.300;2024-03-06T07:47:58;3.47;;;2.70;;
43986;SDS011;29650;47.378;8.300;2024-03-06T07:50:25;3.70;;;2.90;;
43986;SDS011;29650;47.378;8.300;2024-03-06T07:52:55;3.45;;;2.75;;
43986;SDS011;29650;47.378;8.300;2024-03-06T07:55:23;3.78;;;2.97;;
43986;SDS011;29650;47.378;8.300;2024-03-06T07:57:50;4.57;;;3.03;;
43986;SDS011;29650;47.378;8.300;2024-03-06T08:00:40;3.95;;;2.75;;
43986;SDS011;29650;47.378;8.300;2024-03-06T08:03:07;4.13;;;2.70;;
43986;SDS011;29650;47.378;8.300;2024-03-06T08:05:36;5.78;;;3.20;;
43986;SDS011;29650;47.378;8.300;2024-03-06T08:08:03;4.68;;;3.58;;
43986;SDS011;29650;47.378;8.300;2024-03-06T08:10:32;4.95;;;3.30;;
43986;SDS011;29650;47.378;8.300;2024-03-06T08:13:01;5.60;;;3.65;;
43986;SDS011;29650;47.378;8.300;2024-03-06T08:15:28;4.93;;;3.50;;
43986;SDS011;29650;47.378;8.300;2024-03-06T08:17:57;3.80;;;2.90;;
43986;SDS011;29650;47.378;8.300;2024-03-06T08:20:23;4.45;;;2.97;;
43986;SDS011;29650;47.378;8.300;2024-03-06T08:22:52;12.97;;;4.30;;
43986;SDS011;29650;47.378;8.300;2024-03-06T08:25:19;5.47;;;3.40;;
43986;SDS011;29650;47.378;8.300;2024-03-06T08:27:47;6.00;;;3.83;;
43986;SDS011;29650;47.378;8.300;2024-03-06T08:30:15;4.90;;;3.60;;
43986;SDS011;29650;47.378;8.300;2024-03-06T08:32:42;4.20;;;3.00;;
43986;SDS011;29650;47.378;8.300;2024-03-06T08:35:10;6.00;;;3.45;;
43986;SDS011;29650;47.378;8.300;2024-03-06T08:37:48;6.82;;;4.03;;
43986;SDS011;29650;47.378;8.300;2024-03-06T08:40:16;5.72;;;4.00;;
43986;SDS011;29650;47.378;8.300;2024-03-06T08:42:44;4.97;;;3.33;;
43986;SDS011;29650;47.378;8.300;2024-03-06T08:45:13;5.78;;;3.75;;
43986;SDS011;29650;47.378;8.300;2024-03-06T08:47:41;6.00;;;4.07;;
43986;SDS011;29650;47.378;8.300;2024-03-06T08:50:17;7.00;;;4.00;;
43986;SDS011;29650;47.378;8.300;2024-03-06T08:52:53;4.78;;;3.63;;
43986;SDS011;29650;47.378;8.300;2024-03-06T08:55:21;5.00;;;4.03;;
43986;SDS011;29650;47.378;8.300;2024-03-06T08:57:48;5.50;;;3.88;;
43986;SDS011;29650;47.378;8.300;2024-03-06T09:00:33;6.32;;;3.70;;
43986;SDS011;29650;47.378;8.300;2024-03-06T09:03:00;7.82;;;4.40;;
43986;SDS011;29650;47.378;8.300;2024-03-06T09:05:27;6.10;;;4.10;;
43986;SDS011;29650;47.378;8.300;2024-03-06T09:07:54;6.38;;;4.05;;
43986;SDS011;29650;47.378;8.300;2024-03-06T09:10:22;7.70;;;5.00;;
43986;SDS011;29650;47.378;8.300;2024-03-06T09:12:49;6.75;;;4.45;;
43986;SDS011;29650;47.378;8.300;2024-03-06T09:15:16;6.60;;;3.63;;
43986;SDS011;29650;47.378;8.300;2024-03-06T09:17:45;6.63;;;3.83;;
43986;SDS011;29650;47.378;8.300;2024-03-06T09:20:32;6.35;;;3.72;;
43986;SDS011;29650;47.378;8.300;2024-03-06T09:22:59;6.28;;;4.20;;
43986;SDS011;29650;47.378;8.300;2024-03-06T09:25:26;6.72;;;4.20;;
43986;SDS011;29650;47.378;8.300;2024-03-06T09:27:58;7.28;;;4.30;;
43986;SDS011;29650;47.378;8.300;2024-03-06T09:30:34;7.00;;;4.63;;
43986;SDS011;29650;47.378;8.300;2024-03-06T09:33:02;6.88;;;4.68;;
43986;SDS011;29650;47.378;8.300;2024-03-06T09:35:29;7.35;;;5.07;;
43986;SDS011;29650;47.378;8.300;2024-03-06T09:37:57;7.53;;;4.83;;
43986;SDS011;29650;47.378;8.300;2024-03-06T09:40:26;7.70;;;5.13;;
43986;SDS011;29650;47.378;8.300;2024-03-06T09:42:54;8.68;;;5.28;;
43986;SDS011;29650;47.378;8.300;2024-03-06T09:45:21;8.50;;;4.57;;
43986;SDS011;29650;47.378;8.300;2024-03-06T09:47:49;8.55;;;5.22;;
43986;SDS011;29650;47.378;8.300;2024-03-06T09:52:49;7.07;;;4.55;;
43986;SDS011;29650;47.378;8.300;2024-03-06T09:55:18;7.68;;;4.82;;
43986;SDS011;29650;47.378;8.300;2024-03-06T09:57:45;5.63;;;4.28;;
43986;SDS011;29650;47.378;8.300;2024-03-06T10:00:15;8.05;;;4.80;;
43986;SDS011;29650;47.378;8.300;2024-03-06T10:02:46;9.27;;;5.03;;
43986;SDS011;29650;47.378;8.300;2024-03-06T10:05:21;9.10;;;4.00;;
43986;SDS011;29650;47.378;8.300;2024-03-06T10:07:50;6.75;;;4.78;;
43986;SDS011;29650;47.378;8.300;2024-03-06T10:10:23;5.78;;;4.10;;
43986;SDS011;29650;47.378;8.300;2024-03-06T10:12:50;6.10;;;4.03;;
43986;SDS011;29650;47.378;8.300;2024-03-06T10:15:17;9.07;;;4.85;;
43986;SDS011;29650;47.378;8.300;2024-03-06T10:17:44;6.53;;;4.40;;
43986;SDS011;29650;47.378;8.300;2024-03-06T10:20:18;7.50;;;4.72;;
43986;SDS011;29650;47.378;8.300;2024-03-06T10:22:50;6.57;;;4.80;;
43986;SDS011;29650;47.378;8.300;2024-03-06T10:25:19;10.55;;;5.20;;
43986;SDS011;29650;47.378;8.300;2024-03-06T10:27:47;7.57;;;4.43;;
43986;SDS011;29650;47.378;8.300;2024-03-06T10:30:30;6.00;;;4.47;;
43986;SDS011;29650;47.378;8.300;2024-03-06T10:32:58;7.57;;;4.93;;
43986;SDS011;29650;47.378;8.300;2024-03-06T10:35:25;7.63;;;4.78;;
43986;SDS011;29650;47.378;8.300;2024-03-06T10:38:08;6.57;;;4.30;;
43986;SDS011;29650;47.378;8.300;2024-03-06T10:40:37;6.97;;;4.90;;
43986;SDS011;29650;47.378;8.300;2024-03-06T10:43:09;6.57;;;4.53;;
43986;SDS011;29650;47.378;8.300;2024-03-06T10:45:40;7.05;;;4.40;;
43986;SDS011;29650;47.378;8.300;2024-03-06T10:48:13;7.68;;;4.88;;
43986;SDS011;29650;47.378;8.300;2024-03-06T10:50:55;8.50;;;4.32;;
43986;SDS011;29650;47.378;8.300;2024-03-06T10:53:33;8.70;;;4.10;;
43986;SDS011;29650;47.378;8.300;2024-03-06T10:56:04;5.45;;;4.00;;
43986;SDS011;29650;47.378;8.300;2024-03-06T10:58:34;6.30;;;3.63;;
43986;SDS011;29650;47.378;8.300;2024-03-06T11:01:07;5.82;;;3.70;;
43986;SDS011;29650;47.378;8.300;2024-03-06T11:03:46;5.47;;;3.33;;
43986;SDS011;29650;47.378;8.300;2024-03-06T11:06:17;12.70;;;4.75;;
43986;SDS011;29650;47.378;8.300;2024-03-06T11:08:46;6.05;;;4.47;;
43986;SDS011;29650;47.378;8.300;2024-03-06T11:13:47;7.10;;;5.18;;
43986;SDS011;29650;47.378;8.300;2024-03-06T11:16:14;5.65;;;4.00;;
43986;SDS011;29650;47.378;8.300;2024-03-06T11:18:42;7.15;;;4.57;;
43986;SDS011;29650;47.378;8.300;2024-03-06T11:21:31;7.75;;;4.20;;
43986;SDS011;29650;47.378;8.300;2024-03-06T11:24:15;6.30;;;4.13;;
43986;SDS011;29650;47.378;8.300;2024-03-06T11:26:52;6.88;;;4.60;;
43986;SDS011;29650;47.378;8.300;2024-03-06T11:32:21;8.05;;;4.85;;
43986;SDS011;29650;47.378;8.300;2024-03-06T11:34:53;7.15;;;4.93;;
43986;SDS011;29650;47.378;8.300;2024-03-06T11:37:20;8.25;;;4.95;;
43986;SDS011;29650;47.378;8.300;2024-03-06T11:39:59;7.22;;;5.03;;
43986;SDS011;29650;47.378;8.300;2024-03-06T11:42:32;7.18;;;4.75;;
43986;SDS011;29650;47.378;8.300;2024-03-06T11:45:01;7.45;;;5.30;;
43986;SDS011;29650;47.378;8.300;2024-03-06T11:47:55;6.43;;;4.70;;
43986;SDS011;29650;47.378;8.300;2024-03-06T11:50:23;5.38;;;4.20;;
43986;SDS011;29650;47.378;8.300;2024-03-06T11:52:53;7.43;;;5.18;;
43986;SDS011;29650;47.378;8.300;2024-03-06T11:55:25;6.63;;;4.97;;
43986;SDS011;29650;47.378;8.300;2024-03-06T11:57:52;7.43;;;4.80;;
43986;SDS011;29650;47.378;8.300;2024-03-06T12:00:21;6.63;;;3.97;;
43986;SDS011;29650;47.378;8.300;2024-03-06T12:02:49;7.47;;;4.47;;
43986;SDS011;29650;47.378;8.300;2024-03-06T12:05:26;6.63;;;4.53;;
43986;SDS011;29650;47.378;8.300;2024-03-06T12:07:55;4.90;;;3.90;;
43986;SDS011;29650;47.378;8.300;2024-03-06T12:10:22;6.03;;;4.55;;
43986;SDS011;29650;47.378;8.300;2024-03-06T12:12:51;5.72;;;4.25;;
43986;SDS011;29650;47.378;8.300;2024-03-06T12:15:18;7.40;;;4.47;;
43986;SDS011;29650;47.378;8.300;2024-03-06T12:17:47;5.47;;;3.83;;
43986;SDS011;29650;47.378;8.300;2024-03-06T12:20:15;6.18;;;3.40;;
43986;SDS011;29650;47.378;8.300;2024-03-06T12:22:43;6.50;;;4.50;;
43986;SDS011;29650;47.378;8.300;2024-03-06T12:25:17;5.80;;;4.10;;
43986;SDS011;29650;47.378;8.300;2024-03-06T12:27:45;4.82;;;3.72;;
43986;SDS011;29650;47.378;8.300;2024-03-06T12:30:15;6.63;;;4.18;;
43986;SDS011;29650;47.378;8.300;2024-03-06T12:32:43;4.90;;;3.83;;
43986;SDS011;29650;47.378;8.300;2024-03-06T12:35:10;4.75;;;3.80;;
43986;SDS011;29650;47.378;8.300;2024-03-06T12:37:37;5.00;;;3.75;;
43986;SDS011;29650;47.378;8.300;2024-03-06T12:40:13;5.43;;;3.95;;
43986;SDS011;29650;47.378;8.300;2024-03-06T12:42:41;6.32;;;4.05;;
43986;SDS011;29650;47.378;8.300;2024-03-06T12:45:08;3.88;;;3.00;;
43986;SDS011;29650;47.378;8.300;2024-03-06T12:47:39;5.28;;;3.67;;
43986;SDS011;29650;47.378;8.300;2024-03-06T12:50:07;4.60;;;3.78;;
43986;SDS011;29650;47.378;8.300;2024-03-06T12:52:35;4.22;;;2.90;;
43986;SDS011;29650;47.378;8.300;2024-03-06T12:55:29;4.30;;;3.50;;
43986;SDS011;29650;47.378;8.300;2024-03-06T12:57:57;5.50;;;3.05;;
43986;SDS011;29650;47.378;8.300;2024-03-06T13:00:25;3.75;;;2.85;;
43986;SDS011;29650;47.378;8.300;2024-03-06T13:03:01;4.03;;;3.22;;
43986;SDS011;29650;47.378;8.300;2024-03-06T13:05:30;3.95;;;3.08;;
43986;SDS011;29650;47.378;8.300;2024-03-06T13:07:57;3.00;;;2.70;;
43986;SDS011;29650;47.378;8.300;2024-03-06T13:10:29;4.55;;;3.70;;
43986;SDS011;29650;47.378;8.300;2024-03-06T13:12:57;4.97;;;3.30;;
43986;SDS011;29650;47.378;8.300;2024-03-06T13:15:24;3.30;;;2.85;;
43986;SDS011;29650;47.378;8.300;2024-03-06T13:17:50;3.88;;;3.13;;
43986;SDS011;29650;47.378;8.300;2024-03-06T13:20:19;6.90;;;3.30;;
43986;SDS011;29650;47.378;8.300;2024-03-06T13:22:46;3.30;;;3.00;;
43986;SDS011;29650;47.378;8.300;2024-03-06T13:25:13;5.35;;;3.33;;
43986;SDS011;29650;47.378;8.300;2024-03-06T13:27:40;4.70;;;3.10;;
43986;SDS011;29650;47.378;8.300;2024-03-06T13:30:13;9.25;;;3.92;;
43986;SDS011;29650;47.378;8.300;2024-03-06T13:32:40;4.38;;;3.22;;
43986;SDS011;29650;47.378;8.300;2024-03-06T13:35:10;5.07;;;3.42;;
43986;SDS011;29650;47.378;8.300;2024-03-06T13:37:40;6.30;;;3.28;;
43986;SDS011;29650;47.378;8.300;2024-03-06T13:40:07;4.22;;;3.60;;
43986;SDS011;29650;47.378;8.300;2024-03-06T13:42:35;9.70;;;3.53;;
43986;SDS011;29650;47.378;8.300;2024-03-06T13:45:03;6.53;;;3.60;;
43986;SDS011;29650;47.378;8.300;2024-03-06T13:47:36;5.13;;;3.22;;
43986;SDS011;29650;47.378;8.300;2024-03-06T13:50:04;4.10;;;3.15;;
43986;SDS011;29650;47.378;8.300;2024-03-06T13:55:01;4.65;;;3.13;;
43986;SDS011;29650;47.378;8.300;2024-03-06T13:57:30;5.60;;;2.90;;
43986;SDS011;29650;47.378;8.300;2024-03-06T14:00:01;3.20;;;2.58;;
43986;SDS011;29650;47.378;8.300;2024-03-06T14:02:31;3.78;;;2.67;;
43986;SDS011;29650;47.378;8.300;2024-03-06T14:04:58;4.60;;;2.60;;
43986;SDS011;29650;47.378;8.300;2024-03-06T14:07:25;4.30;;;2.55;;
43986;SDS011;29650;47.378;8.300;2024-03-06T14:09:52;3.80;;;2.63;;
43986;SDS011;29650;47.378;8.300;2024-03-06T14:12:23;4.15;;;2.80;;
43986;SDS011;29650;47.378;8.300;2024-03-06T14:14:51;3.45;;;2.70;;
43986;SDS011;29650;47.378;8.300;2024-03-06T14:17:18;3.72;;;2.67;;
43986;SDS011;29650;47.378;8.300;2024-03-06T14:19:45;3.47;;;2.53;;
43986;SDS011;29650;47.378;8.300;2024-03-06T14:22:14;3.45;;;2.33;;
43986;SDS011;29650;47.378;8.300;2024-03-06T14:24:57;3.42;;;2.70;;
43986;SDS011;29650;47.378;8.300;2024-03-06T14:27:27;3.58;;;2.63;;
43986;SDS011;29650;47.378;8.300;2024-03-06T14:29:57;2.80;;;2.17;;
43986;SDS011;29650;47.378;8.300;2024-03-06T14:32:25;5.35;;;2.60;;
43986;SDS011;29650;47.378;8.300;2024-03-06T14:35:04;3.38;;;2.47;;
43986;SDS011;29650;47.378;8.300;2024-03-06T14:37:53;5.28;;;3.00;;
43986;SDS011;29650;47.378;8.300;2024-03-06T14:40:21;4.22;;;3.28;;
43986;SDS011;29650;47.378;8.300;2024-03-06T14:42:50;3.30;;;2.70;;
43986;SDS011;29650;47.378;8.300;2024-03-06T14:45:17;6.45;;;3.05;;
43986;SDS011;29650;47.378;8.300;2024-03-06T14:47:53;4.70;;;3.00;;
43986;SDS011;29650;47.378;8.300;2024-03-06T14:50:21;5.57;;;2.30;;
43986;SDS011;29650;47.378;8.300;2024-03-06T14:53:24;3.03;;;2.60;;
43986;SDS011;29650;47.378;8.300;2024-03-06T14:55:51;6.32;;;2.88;;
43986;SDS011;29650;47.378;8.300;2024-03-06T14:58:29;5.45;;;2.97;;
43986;SDS011;29650;47.378;8.300;2024-03-06T15:00:56;3.37;;;2.80;;
43986;SDS011;29650;47.378;8.300;2024-03-06T15:03:23;2.97;;;2.47;;
43986;SDS011;29650;47.378;8.300;2024-03-06T15:05:50;3.08;;;2.63;;
43986;SDS011;29650;47.378;8.300;2024-03-06T15:08:17;3.75;;;2.97;;
43986;SDS011;29650;47.378;8.300;2024-03-06T15:10:44;4.28;;;2.55;;
43986;SDS011;29650;47.378;8.300;2024-03-06T15:13:11;4.80;;;3.22;;
43986;SDS011;29650;47.378;8.300;2024-03-06T15:15:41;3.25;;;2.95;;
43986;SDS011;29650;47.378;8.300;2024-03-06T15:18:08;6.18;;;3.00;;
43986;SDS011;29650;47.378;8.300;2024-03-06T15:20:35;3.45;;;3.13;;
43986;SDS011;29650;47.378;8.300;2024-03-06T15:23:03;4.82;;;3.60;;
43986;SDS011;29650;47.378;8.300;2024-03-06T15:25:34;4.03;;;3.45;;
43986;SDS011;29650;47.378;8.300;2024-03-06T15:28:01;4.68;;;3.72;;
43986;SDS011;29650;47.378;8.300;2024-03-06T15:30:29;4.53;;;3.60;;